Heidi L. Brusco — WDC9175 — position and weather

sailwx.info

Track history (hours):
 
Tides and Currents Weather Stations Pressure Air Temp Water Temp Dewpoint Dewpoint Depression Visibility Wind Speed Wind Dir Waves Ship Positions

Heidi L. Brusco

Owner: Brusco Tug & Barge, Inc., Longview, WA. More information available from US FCC via Universal Licensing System and Coast Guard Vessel Documentation Center.

Last reported at 2017-Oct-20 21:00 UTC. Time now 2017-Oct-20 21:16 UTC.
Position N 37°50' W 122°21'.

Length 35 m; draft 3.5 m.

Type: Tug. MMSI: 366916022.

Date/timePositionNaut miles runAvg speedWind from/ knotsBaromVisibWave heightAir tempDewpointWater temp
2017-Oct-20 21:00N 37°50' W 122°21'2 4.4
2017-Oct-20 20:30N 37°49' W 122°19'0 0.3
2017-Oct-20 20:00N 37°49' W 122°18'0 0.0
2017-Oct-20 19:30N 37°49' W 122°18'0 0.0
2017-Oct-20 19:00N 37°49' W 122°18'0 0.0
2017-Oct-20 18:30N 37°49' W 122°18'0 0.0
2017-Oct-20 18:00N 37°49' W 122°18'0 0.0
2017-Oct-20 17:30N 37°49' W 122°18'0 0.0
2017-Oct-20 17:00N 37°49' W 122°18'0 0.0
2017-Oct-20 16:30N 37°49' W 122°18'0 0.0
2017-Oct-20 16:00N 37°49' W 122°18'0 0.0
2017-Oct-20 15:30N 37°49' W 122°18'0 0.0
2017-Oct-20 15:00N 37°49' W 122°18'0 0.0
2017-Oct-20 14:00N 37°49' W 122°18'0 0.0
2017-Oct-20 13:30N 37°49' W 122°18'0 0.0
2017-Oct-20 13:00N 37°49' W 122°18'0 0.0
2017-Oct-20 12:30N 37°49' W 122°18'0 0.0
2017-Oct-20 12:00N 37°49' W 122°18'0 0.0
2017-Oct-20 11:30N 37°49' W 122°18'0 0.0
2017-Oct-20 11:01N 37°49' W 122°18'0 0.0
2017-Oct-20 10:30N 37°49' W 122°18'0 0.0
2017-Oct-20 10:00N 37°49' W 122°18'0 0.0
2017-Oct-20 09:30N 37°49' W 122°18'0 0.3
2017-Oct-20 09:00N 37°49' W 122°19'1 2.1
2017-Oct-20 08:31N 37°49' W 122°20'1 2.3
2017-Oct-20 08:01N 37°49' W 122°19'0 0.0
2017-Oct-20 07:30N 37°49' W 122°19'0 0.5
2017-Oct-20 07:00N 37°49' W 122°19'1 2.9
2017-Oct-20 06:31N 37°48' W 122°20'2 3.0
2017-Oct-20 06:00N 37°48' W 122°22'510.7
2017-Oct-20 05:30N 37°49' W 122°28'612.1
2017-Oct-20 05:00N 37°46' W 122°35'610.3
2017-Oct-20 04:25N 37°44' W 122°42'4 9.8
2017-Oct-20 03:59N 37°43' W 122°47'14 2.3
2017-Oct-19 22:13N 37°38' W 123°03'4 9.0
2017-Oct-19 21:44N 37°38' W 122°58'15 8.9
2017-Oct-19 20:03N 37°45' W 122°40'0 8.6
2017-Oct-19 20:00N 37°45' W 122°40'4 8.4
2017-Oct-19 19:30N 37°46' W 122°35'4 7.9
2017-Oct-19 19:00N 37°48' W 122°30'3 6.0
2017-Oct-19 18:30N 37°50' W 122°27'3 6.4
2017-Oct-19 18:00N 37°49' W 122°23'3 5.5
2017-Oct-19 17:30N 37°49' W 122°20'1 1.5
2017-Oct-19 17:01N 37°48' W 122°21'1 1.5
2017-Oct-19 16:30N 37°48' W 122°20'2 3.2
2017-Oct-19 16:00N 37°49' W 122°19'0 0.0
2017-Oct-19 15:30N 37°49' W 122°19'0 0.0
2017-Oct-19 15:00N 37°49' W 122°19'0 0.0
2017-Oct-19 14:30N 37°49' W 122°19'0 0.0
2017-Oct-19 14:00N 37°49' W 122°19'0 0.0
2017-Oct-19 13:30N 37°49' W 122°19'0 0.0
2017-Oct-19 13:00N 37°49' W 122°19'0 0.0
2017-Oct-19 12:31N 37°49' W 122°19'0 0.0
2017-Oct-19 12:01N 37°49' W 122°19'0 0.0
2017-Oct-19 11:31N 37°49' W 122°19'0 0.0
2017-Oct-19 11:00N 37°49' W 122°19'0 0.0
2017-Oct-19 10:31N 37°49' W 122°19'0 0.5
2017-Oct-19 10:01N 37°49' W 122°19'1 2.8
2017-Oct-19 09:31N 37°48' W 122°21'1 2.2
2017-Oct-19 09:01N 37°48' W 122°21'3 6.5
2017-Oct-19 08:30N 37°49' W 122°25'5 9.3
2017-Oct-19 08:00N 37°48' W 122°31'510.4
2017-Oct-19 07:30N 37°46' W 122°37'5 9.0
2017-Oct-19 07:00N 37°44' W 122°42'5 9.5
2017-Oct-19 06:29N 37°43' W 122°48'5 9.9
2017-Oct-19 06:00N 37°41' W 122°53'510.0
2017-Oct-19 05:30N 37°39' W 122°59'5 9.8
2017-Oct-19 05:00N 37°39' W 123°05'710.0
2017-Oct-19 04:18N 37°39' W 123°14'3 9.9
2017-Oct-19 04:00N 37°39' W 123°18'610.0
2017-Oct-19 03:26N 37°39' W 123°25'3 6.3
2017-Oct-19 02:55N 37°39' W 123°29'4 8.7
2017-Oct-19 02:29N 37°39' W 123°24'4 8.7
2017-Oct-19 01:58N 37°39' W 123°19'4 8.9
2017-Oct-19 01:30N 37°39' W 123°13'4 8.8
2017-Oct-19 01:00N 37°39' W 123°08'4 8.8
2017-Oct-19 00:30N 37°38' W 123°02'4 8.8
2017-Oct-19 00:00N 37°39' W 122°57'4 9.0
2017-Oct-18 23:30N 37°41' W 122°52'5 9.1
2017-Oct-18 23:00N 37°43' W 122°47'4 8.8
2017-Oct-18 22:30N 37°45' W 122°42'4 8.8
2017-Oct-18 22:00N 37°46' W 122°37'611.2
2017-Oct-18 21:30N 37°49' W 122°30'5 9.6
2017-Oct-18 21:00N 37°49' W 122°24'3 6.8
2017-Oct-18 20:31N 37°49' W 122°20'0 0.1
2017-Oct-18 20:00N 37°49' W 122°20'1 1.8
2017-Oct-18 19:30N 37°48' W 122°21'1 2.6
2017-Oct-18 19:00N 37°48' W 122°23'5 9.0
2017-Oct-18 18:30N 37°49' W 122°28'510.1
2017-Oct-18 18:00N 37°47' W 122°34'5 9.6
2017-Oct-18 17:30N 37°45' W 122°39'4 8.4
2017-Oct-18 17:00N 37°43' W 122°44'5 9.6
2017-Oct-18 16:29N 37°42' W 122°51'5 9.7
2017-Oct-18 16:00N 37°40' W 122°56'5 9.3
2017-Oct-18 15:30N 37°39' W 123°01'5 9.3
2017-Oct-18 15:00N 37°39' W 123°07'9 9.4
2017-Oct-18 14:00N 37°39' W 123°19'5 9.2
2017-Oct-18 13:30N 37°39' W 123°25'3 6.3
2017-Oct-18 13:00N 37°39' W 123°29'4 7.7
2017-Oct-18 12:28N 37°39' W 123°24'4 7.8
2017-Oct-18 12:00N 37°39' W 123°19'4 8.0
2017-Oct-18 11:30N 37°39' W 123°14'4 8.1
2017-Oct-18 11:00N 37°38' W 123°09'4 8.3
2017-Oct-18 10:30N 37°38' W 123°04'4 8.2
2017-Oct-18 10:00N 37°38' W 122°58'4 7.9
2017-Oct-18 09:30N 37°40' W 122°54'4 8.4
2017-Oct-18 09:00N 37°42' W 122°50'4 8.2
2017-Oct-18 08:30N 37°44' W 122°45'4 8.4
2017-Oct-18 08:00N 37°45' W 122°40'4 7.9
2017-Oct-18 07:30N 37°47' W 122°35'4 7.9
2017-Oct-18 07:00N 37°49' W 122°31'3 6.7
2017-Oct-18 06:30N 37°50' W 122°27'3 6.4
2017-Oct-18 06:01N 37°49' W 122°23'2 3.5
2017-Oct-18 05:30N 37°48' W 122°21'1 1.8
2017-Oct-18 05:00N 37°49' W 122°20'1 2.5
2017-Oct-18 04:31N 37°49' W 122°19'0 0.1
2017-Oct-18 04:01N 37°49' W 122°18'0 0.0
2017-Oct-18 03:30N 37°49' W 122°18'0 0.1
2017-Oct-18 03:00N 37°49' W 122°19'0 0.0
2017-Oct-18 02:30N 37°49' W 122°19'0 0.0
2017-Oct-18 02:00N 37°49' W 122°19'0 0.0
2017-Oct-18 01:30N 37°49' W 122°19'0 0.0
2017-Oct-18 01:00N 37°49' W 122°19'0 0.0
2017-Oct-18 00:30N 37°49' W 122°19'0 0.1
2017-Oct-18 00:00N 37°49' W 122°18'0 0.5
2017-Oct-17 23:30N 37°49' W 122°19'2 4.1
2017-Oct-17 23:00N 37°48' W 122°21'0 0.8
2017-Oct-17 22:30N 37°48' W 122°21'3 7.0
2017-Oct-17 22:00N 37°49' W 122°25'3 6.6
2017-Oct-17 21:30N 37°49' W 122°29'3 6.0
2017-Oct-17 21:00N 37°47' W 122°33'3 7.0
2017-Oct-17 20:30N 37°46' W 122°37'4 7.8
2017-Oct-17 20:00N 37°44' W 122°41'5 9.2
2017-Oct-17 19:30N 37°43' W 122°47'5 9.4
2017-Oct-17 19:00N 37°41' W 122°52'5 9.4
2017-Oct-17 18:30N 37°39' W 122°57'5 9.0
2017-Oct-17 18:00N 37°38' W 123°03'5 9.1
2017-Oct-17 17:30N 37°39' W 123°09'4 8.7
2017-Oct-17 17:00N 37°39' W 123°14'4 8.7
2017-Oct-17 16:30N 37°39' W 123°20'4 8.8
2017-Oct-17 16:00N 37°39' W 123°25'3 5.4
2017-Oct-17 15:30N 37°39' W 123°28'4 8.3
2017-Oct-17 15:00N 37°39' W 123°23'4 8.6
2017-Oct-17 14:30N 37°39' W 123°18'4 8.6
2017-Oct-17 14:00N 37°39' W 123°12'4 8.4
2017-Oct-17 13:30N 37°39' W 123°07'4 8.4
2017-Oct-17 13:00N 37°39' W 123°02'4 8.2
2017-Oct-17 12:30N 37°39' W 122°57'4 8.3
2017-Oct-17 12:00N 37°41' W 122°52'4 8.3
2017-Oct-17 11:30N 37°43' W 122°48'4 8.4
2017-Oct-17 11:00N 37°44' W 122°43'4 8.1
2017-Oct-17 10:30N 37°46' W 122°38'5 9.7
2017-Oct-17 10:00N 37°47' W 122°32'5 9.1
2017-Oct-17 09:30N 37°50' W 122°27'5 9.2
2017-Oct-17 09:00N 37°48' W 122°22'2 3.6
2017-Oct-17 08:30N 37°49' W 122°20'1 1.8
2017-Oct-17 08:01N 37°49' W 122°19'0 0.2
2017-Oct-17 07:30N 37°49' W 122°18'0 0.0
2017-Oct-17 07:00N 37°49' W 122°18'0 0.5
2017-Oct-17 06:30N 37°49' W 122°19'2 3.0
2017-Oct-17 06:00N 37°48' W 122°20'1 1.7
2017-Oct-17 05:30N 37°48' W 122°21'5 9.3
2017-Oct-17 05:00N 37°49' W 122°27'510.2
2017-Oct-17 04:30N 37°47' W 122°33'510.7
2017-Oct-17 04:00N 37°45' W 122°39'4 7.6
2017-Oct-17 03:30N 37°44' W 122°43'5 9.9
2017-Oct-17 03:00N 37°43' W 122°50'5 9.9
2017-Oct-17 02:30N 37°40' W 122°55'510.0
2017-Oct-17 02:00N 37°38' W 123°01'510.1
2017-Oct-17 01:30N 37°39' W 123°07'510.2
2017-Oct-17 01:00N 37°39' W 123°13'5 9.8
2017-Oct-17 00:30N 37°39' W 123°20'510.0
2017-Oct-16 23:59N 37°39' W 123°26'0 0.5
2017-Oct-16 23:27N 37°39' W 123°26'4 9.0
2017-Oct-16 23:00N 37°39' W 123°21'5 9.2
2017-Oct-16 22:27N 37°39' W 123°15'4 8.9
2017-Oct-16 22:00N 37°39' W 123°10'5 9.0
2017-Oct-16 21:30N 37°38' W 123°04'5 9.1
2017-Oct-16 21:00N 37°38' W 122°58'5 9.1
2017-Oct-16 20:30N 37°40' W 122°53'5 9.2
2017-Oct-16 20:00N 37°43' W 122°48'5 9.3
2017-Oct-16 19:30N 37°44' W 122°43'4 8.9
2017-Oct-16 19:00N 37°46' W 122°38'5 9.2
2017-Oct-16 18:30N 37°48' W 122°32'4 8.1
2017-Oct-16 18:00N 37°50' W 122°28'3 6.9
2017-Oct-16 17:30N 37°49' W 122°23'3 5.6
2017-Oct-16 17:00N 37°49' W 122°20'0 0.8
2017-Oct-16 16:30N 37°49' W 122°19'1 1.7
2017-Oct-16 16:00N 37°49' W 122°18'0 0.0
2017-Oct-16 15:30N 37°49' W 122°18'0 0.0
2017-Oct-16 15:00N 37°49' W 122°18'0 0.0
2017-Oct-16 14:00N 37°49' W 122°18'0 0.0
2017-Oct-16 13:30N 37°49' W 122°18'0 0.0
2017-Oct-16 13:00N 37°49' W 122°18'0 0.1
2017-Oct-16 12:30N 37°49' W 122°19'0 0.1
2017-Oct-16 12:00N 37°49' W 122°18'0 0.0
2017-Oct-16 11:30N 37°49' W 122°18'0 0.0
2017-Oct-16 11:01N 37°49' W 122°18'0 0.0
2017-Oct-16 10:30N 37°49' W 122°18'0 0.1
2017-Oct-16 10:00N 37°49' W 122°19'0 0.0
2017-Oct-16 09:30N 37°49' W 122°19'0 0.1
2017-Oct-16 09:00N 37°49' W 122°18'0 0.0
2017-Oct-16 08:31N 37°49' W 122°18'0 0.0
2017-Oct-16 08:00N 37°49' W 122°18'0 0.0
2017-Oct-16 07:31N 37°49' W 122°18'0 0.0
2017-Oct-16 07:00N 37°49' W 122°18'0 0.0
2017-Oct-16 06:30N 37°49' W 122°18'0 0.0
2017-Oct-16 06:00N 37°49' W 122°18'0 0.0
2017-Oct-16 05:30N 37°49' W 122°18'1 2.1
2017-Oct-16 05:00N 37°49' W 122°20'2 3.4
2017-Oct-16 04:30N 37°47' W 122°21'3 5.4
2017-Oct-16 04:00N 37°49' W 122°24'5 9.2
2017-Oct-16 03:31N 37°48' W 122°30'5 9.8
2017-Oct-16 03:00N 37°46' W 122°35'5 9.0
2017-Oct-16 02:30N 37°44' W 122°40'4 8.0
2017-Oct-16 02:00N 37°43' W 122°45'5 9.9
2017-Oct-16 01:28N 37°42' W 122°52'510.3
2017-Oct-16 01:00N 37°39' W 122°57'510.1
2017-Oct-16 00:30N 37°39' W 123°03'510.2
2017-Oct-16 00:00N 37°39' W 123°10'7 9.7
2017-Oct-15 23:15N 37°39' W 123°19'3 9.7
2017-Oct-15 22:58N 37°39' W 123°23'5 9.8
2017-Oct-15 22:30N 37°39' W 123°28'2 4.6
2017-Oct-15 22:00N 37°39' W 123°25'5 9.0
2017-Oct-15 21:27N 37°39' W 123°19'4 8.8
2017-Oct-15 20:59N 37°39' W 123°14'4 8.6
2017-Oct-15 20:30N 37°39' W 123°09'4 8.6
2017-Oct-15 20:00N 37°39' W 123°03'4 8.8
2017-Oct-15 19:30N 37°38' W 122°58'4 8.9
2017-Oct-15 19:00N 37°41' W 122°53'4 8.9
2017-Oct-15 18:30N 37°43' W 122°48'5 8.7
2017-Oct-15 17:57N 37°44' W 122°42'4 7.7
2017-Oct-15 17:30N 37°45' W 122°38'4 7.9
2017-Oct-15 17:00N 37°47' W 122°34'4 7.8
2017-Oct-15 16:30N 37°49' W 122°29'3 6.4
2017-Oct-15 16:00N 37°50' W 122°25'3 7.0
2017-Oct-15 15:30N 37°48' W 122°22'1 3.0
2017-Oct-15 15:00N 37°48' W 122°20'2 1.7
2017-Oct-15 14:00N 37°49' W 122°18'0 0.0
2017-Oct-15 13:31N 37°49' W 122°18'0 0.0
2017-Oct-15 13:00N 37°49' W 122°18'0 0.0
2017-Oct-15 12:30N 37°49' W 122°18'0 0.0
2017-Oct-15 12:01N 37°49' W 122°18'0 0.0
2017-Oct-15 11:30N 37°49' W 122°18'0 0.0
2017-Oct-15 11:00N 37°49' W 122°18'0 0.1
2017-Oct-15 10:30N 37°49' W 122°19'0 0.0
2017-Oct-15 10:00N 37°49' W 122°19'0 0.0
2017-Oct-15 09:30N 37°49' W 122°19'0 0.1
2017-Oct-15 09:00N 37°49' W 122°18'0 0.1
2017-Oct-15 08:30N 37°49' W 122°19'0 0.0
2017-Oct-15 08:00N 37°49' W 122°19'0 0.0
2017-Oct-15 07:30N 37°49' W 122°19'0 0.0
2017-Oct-15 07:00N 37°49' W 122°19'0 0.1
2017-Oct-15 06:30N 37°49' W 122°18'0 0.0
2017-Oct-15 06:00N 37°49' W 122°18'0 0.0
2017-Oct-15 05:30N 37°49' W 122°18'0 0.0
2017-Oct-15 05:00N 37°49' W 122°18'0 0.0
2017-Oct-15 04:30N 37°49' W 122°18'2 3.9
2017-Oct-15 04:00N 37°48' W 122°21'0 0.9
2017-Oct-15 03:30N 37°48' W 122°21'0 0.7
2017-Oct-15 03:00N 37°48' W 122°21'2 3.5
2017-Oct-15 02:30N 37°50' W 122°21'1 2.5
2017-Oct-15 02:00N 37°49' W 122°21'2 4.1
2017-Oct-15 01:30N 37°49' W 122°19'0 0.0
2017-Oct-15 01:00N 37°49' W 122°19'0 0.0
2017-Oct-15 00:30N 37°49' W 122°19'0 0.1
2017-Oct-14 23:59N 37°49' W 122°18'0 0.0
2017-Oct-14 23:30N 37°49' W 122°18'0 0.1
2017-Oct-14 23:00N 37°49' W 122°19'0 0.0
2017-Oct-14 22:30N 37°49' W 122°19'2 4.7
2017-Oct-14 22:00N 37°50' W 122°21'2 3.2
2017-Oct-14 21:30N 37°50' W 122°23'3 5.8
2017-Oct-14 21:00N 37°49' W 122°27'4 7.9
2017-Oct-14 20:30N 37°48' W 122°31'4 7.8
2017-Oct-14 20:00N 37°46' W 122°36'4 8.8
2017-Oct-14 19:30N 37°44' W 122°41'5 9.5
2017-Oct-14 19:00N 37°43' W 122°47'510.4
2017-Oct-14 18:30N 37°41' W 122°53'510.2
2017-Oct-14 18:00N 37°39' W 122°59'510.0
2017-Oct-14 17:30N 37°38' W 123°05'510.2
2017-Oct-14 16:58N 37°39' W 123°12'510.0
2017-Oct-14 16:28N 37°39' W 123°18'510.2
2017-Oct-14 15:57N 37°39' W 123°25'4 7.9
2017-Oct-14 15:30N 37°39' W 123°29'4 7.6
2017-Oct-14 15:00N 37°39' W 123°24'4 7.5
2017-Oct-14 14:30N 37°38' W 123°20'4 7.7
2017-Oct-14 14:00N 37°38' W 123°15'4 7.8
2017-Oct-14 13:30N 37°38' W 123°10'4 8.0
2017-Oct-14 13:00N 37°37' W 123°05'4 8.0
2017-Oct-14 12:30N 37°37' W 122°60'4 8.4
2017-Oct-14 12:00N 37°39' W 122°55'4 8.5
2017-Oct-14 11:30N 37°42' W 122°51'4 8.1
2017-Oct-14 11:00N 37°43' W 122°46'4 8.3
2017-Oct-14 10:28N 37°45' W 122°41'4 8.6
2017-Oct-14 10:00N 37°47' W 122°36'5 9.2
2017-Oct-14 09:30N 37°48' W 122°31'510.1
2017-Oct-14 09:00N 37°50' W 122°25'4 7.1
2017-Oct-14 08:30N 37°48' W 122°21'1 2.5
2017-Oct-14 08:00N 37°49' W 122°20'1 2.6
2017-Oct-14 07:30N 37°49' W 122°18'0 0.0
2017-Oct-14 07:00N 37°49' W 122°18'0 0.0
2017-Oct-14 06:30N 37°49' W 122°18'0 0.0
2017-Oct-14 06:00N 37°49' W 122°18'0 0.0
2017-Oct-14 05:31N 37°49' W 122°18'0 0.0
2017-Oct-14 05:00N 37°49' W 122°18'0 0.0
2017-Oct-14 04:30N 37°49' W 122°18'0 0.0
2017-Oct-14 04:00N 37°49' W 122°18'0 0.0
2017-Oct-14 03:30N 37°49' W 122°18'0 0.0
2017-Oct-14 03:00N 37°49' W 122°18'0 0.0
2017-Oct-14 02:30N 37°49' W 122°18'0 0.1
2017-Oct-14 02:00N 37°49' W 122°19'1 2.8
2017-Oct-14 01:30N 37°49' W 122°20'1 2.8
2017-Oct-14 01:01N 37°50' W 122°21'0 0.0
2017-Oct-14 00:30N 37°50' W 122°21'0 0.0
2017-Oct-14 00:00N 37°50' W 122°21'0 0.2
2017-Oct-13 23:30N 37°50' W 122°21'2 3.3
2017-Oct-13 23:00N 37°50' W 122°24'510.4
2017-Oct-13 22:30N 37°48' W 122°30'5 9.5
2017-Oct-13 22:00N 37°46' W 122°35'5 9.6
2017-Oct-13 21:30N 37°44' W 122°40'4 7.6
2017-Oct-13 21:00N 37°44' W 122°45'5 9.8
2017-Oct-13 20:30N 37°42' W 122°51'5 9.8
2017-Oct-13 20:00N 37°40' W 122°57'5 9.3
2017-Oct-13 19:30N 37°38' W 123°02'5 9.7
2017-Oct-13 19:00N 37°39' W 123°08'5 9.8
2017-Oct-13 18:30N 37°39' W 123°15'510.0
2017-Oct-13 18:00N 37°39' W 123°21'5 9.5
2017-Oct-13 17:27N 37°39' W 123°28'1 2.1
2017-Oct-13 16:56N 37°39' W 123°29'3 6.6
2017-Oct-13 16:27N 37°39' W 123°25'3 6.6
2017-Oct-13 16:00N 37°39' W 123°21'4 6.5
2017-Oct-13 15:28N 37°39' W 123°17'3 6.7
2017-Oct-13 15:00N 37°39' W 123°13'4 7.1
2017-Oct-13 14:30N 37°39' W 123°08'3 6.9
2017-Oct-13 14:00N 37°38' W 123°04'3 6.9
2017-Oct-13 13:30N 37°38' W 122°60'4 7.4
2017-Oct-13 13:00N 37°40' W 122°55'4 7.6
2017-Oct-13 12:30N 37°42' W 122°51'3 6.9
2017-Oct-13 12:00N 37°43' W 122°47'4 6.0
2017-Oct-13 11:16N 37°44' W 122°42'2 8.0
2017-Oct-13 11:00N 37°45' W 122°39'4 8.0
2017-Oct-13 10:30N 37°46' W 122°35'4 8.1
2017-Oct-13 10:00N 37°48' W 122°30'4 8.0
2017-Oct-13 09:30N 37°50' W 122°25'4 7.6
2017-Oct-13 09:00N 37°48' W 122°21'1 2.6
2017-Oct-13 08:30N 37°49' W 122°20'1 1.9
2017-Oct-13 08:00N 37°49' W 122°19'0 0.3
2017-Oct-13 07:31N 37°49' W 122°19'0 0.0
2017-Oct-13 07:01N 37°49' W 122°19'0 0.0
2017-Oct-13 06:31N 37°49' W 122°19'0 0.0
2017-Oct-13 06:01N 37°49' W 122°19'0 0.0
2017-Oct-13 05:30N 37°49' W 122°19'0 0.0
2017-Oct-13 05:00N 37°49' W 122°19'0 0.0
2017-Oct-13 04:31N 37°49' W 122°19'0 0.0
2017-Oct-13 04:00N 37°49' W 122°19'0 0.0
2017-Oct-13 03:30N 37°49' W 122°19'0 0.0
2017-Oct-13 03:00N 37°49' W 122°19'1 1.3
2017-Oct-13 02:31N 37°49' W 122°19'0 0.9
2017-Oct-13 02:00N 37°49' W 122°20'2 3.2
2017-Oct-13 01:30N 37°50' W 122°21'0 0.0
2017-Oct-13 01:00N 37°50' W 122°21'0 0.0
2017-Oct-13 00:30N 37°50' W 122°21'0 0.0
2017-Oct-13 00:00N 37°50' W 122°21'0 0.0
2017-Oct-12 23:30N 37°50' W 122°21'0 0.0
2017-Oct-12 23:00N 37°50' W 122°21'0 0.2
2017-Oct-12 22:30N 37°50' W 122°21'2 3.4
2017-Oct-12 22:00N 37°50' W 122°24'510.5
2017-Oct-12 21:30N 37°48' W 122°30'5 9.9
2017-Oct-12 21:00N 37°46' W 122°36'5 9.5
2017-Oct-12 20:27N 37°44' W 122°42'4 8.8
2017-Oct-12 19:58N 37°43' W 122°47'5 9.9
2017-Oct-12 19:30N 37°41' W 122°52'5 9.7
2017-Oct-12 19:00N 37°39' W 122°58'5 9.3
2017-Oct-12 18:30N 37°39' W 123°03'510.0
2017-Oct-12 18:00N 37°39' W 123°10'5 9.9
2017-Oct-12 17:29N 37°39' W 123°16'8 9.3
2017-Oct-12 16:39N 37°39' W 123°26'2 8.0
2017-Oct-12 16:25N 37°39' W 123°28'3 4.2
2017-Oct-12 15:42N 37°39' W 123°25'1 6.5
2017-Oct-12 15:29N 37°39' W 123°23'3 6.5
2017-Oct-12 15:00N 37°39' W 123°19'3 6.3
2017-Oct-12 14:30N 37°39' W 123°15'3 6.6
2017-Oct-12 14:00N 37°39' W 123°11'3 5.8
2017-Oct-12 13:30N 37°38' W 123°07'3 5.3
2017-Oct-12 13:00N 37°38' W 123°04'3 5.0
2017-Oct-12 12:30N 37°38' W 123°01'2 4.8
2017-Oct-12 12:00N 37°38' W 122°58'3 5.3
2017-Oct-12 11:30N 37°40' W 122°55'3 5.7
2017-Oct-12 11:00N 37°41' W 122°52'3 5.5
2017-Oct-12 10:30N 37°43' W 122°49'3 5.1
2017-Oct-12 10:00N 37°44' W 122°46'3 5.2
2017-Oct-12 09:30N 37°45' W 122°43'3 5.0
2017-Oct-12 09:00N 37°46' W 122°40'2 3.9
2017-Oct-12 08:30N 37°46' W 122°38'2 4.0
2017-Oct-12 08:00N 37°47' W 122°35'2 4.8
2017-Oct-12 07:30N 37°48' W 122°32'3 5.9
2017-Oct-12 07:01N 37°49' W 122°29'3 6.2
2017-Oct-12 06:30N 37°50' W 122°25'3 6.6
2017-Oct-12 06:00N 37°48' W 122°22'1 2.3
2017-Oct-12 05:30N 37°48' W 122°20'2 3.4
2017-Oct-12 05:00N 37°49' W 122°19'0 0.1
2017-Oct-12 04:30N 37°49' W 122°18'0 0.1
2017-Oct-12 04:00N 37°49' W 122°19'0 0.1
2017-Oct-12 03:30N 37°49' W 122°18'0 0.1
2017-Oct-12 03:00N 37°49' W 122°19'0 0.0
2017-Oct-12 02:30N 37°49' W 122°19'0 0.0
2017-Oct-12 02:00N 37°49' W 122°19'0 0.0
2017-Oct-12 01:31N 37°49' W 122°19'0 0.1
2017-Oct-12 01:00N 37°49' W 122°18'0 0.0
2017-Oct-12 00:30N 37°49' W 122°18'0 0.0
2017-Oct-12 00:00N 37°49' W 122°18'0 0.0
2017-Oct-11 23:30N 37°49' W 122°18'0 0.0
2017-Oct-11 23:00N 37°49' W 122°18'0 0.7
2017-Oct-11 22:30N 37°49' W 122°19'1 2.8
2017-Oct-11 22:01N 37°48' W 122°20'2 3.1
2017-Oct-11 21:30N 37°49' W 122°19'0 0.1
2017-Oct-11 21:00N 37°49' W 122°19'0 0.1
2017-Oct-11 20:31N 37°49' W 122°19'0 0.0
2017-Oct-11 20:00N 37°49' W 122°19'0 0.0
2017-Oct-11 19:30N 37°49' W 122°19'0 0.0
2017-Oct-11 19:00N 37°49' W 122°19'0 0.0
2017-Oct-11 18:30N 37°49' W 122°19'0 0.0
2017-Oct-11 18:00N 37°49' W 122°19'2 3.3
2017-Oct-11 17:30N 37°48' W 122°20'1 2.4
2017-Oct-11 17:00N 37°48' W 122°22'3 0.2
2017-Oct-11 00:00N 37°49' W 122°19'0 0.0
2017-Oct-10 23:30N 37°49' W 122°19'0 0.0
2017-Oct-10 23:00N 37°49' W 122°19'0 0.0
2017-Oct-10 22:30N 37°49' W 122°19'0 0.0
2017-Oct-10 22:00N 37°49' W 122°19'0 0.0
2017-Oct-10 21:30N 37°49' W 122°19'0 0.0
2017-Oct-10 21:01N 37°49' W 122°19'  
Track history (hours):
 
Tides and Currents Weather Stations Pressure Air Temp Water Temp Dewpoint Dewpoint Depression Visibility Wind Speed Wind Dir Waves Ship Positions

Heidi L. Brusco

Owner: Brusco Tug & Barge, Inc., Longview, WA. More information available from US FCC via Universal Licensing System and Coast Guard Vessel Documentation Center.

Last reported at 2017-Oct-20 21:00 UTC. Time now 2017-Oct-20 21:16 UTC.
Position N 37°50' W 122°21'.

Length 35 m; draft 3.5 m.

Type: Tug. MMSI: 366916022.

Date/timePositionNaut miles runAvg speedWind from/ knotsBaromVisibWave heightAir tempDewpointWater temp
2017-Oct-20 21:00N 37°50' W 122°21'2 4.4
2017-Oct-20 20:30N 37°49' W 122°19'0 0.3
2017-Oct-20 20:00N 37°49' W 122°18'0 0.0
2017-Oct-20 19:30N 37°49' W 122°18'0 0.0
2017-Oct-20 19:00N 37°49' W 122°18'0 0.0
2017-Oct-20 18:30N 37°49' W 122°18'0 0.0
2017-Oct-20 18:00N 37°49' W 122°18'0 0.0
2017-Oct-20 17:30N 37°49' W 122°18'0 0.0
2017-Oct-20 17:00N 37°49' W 122°18'0 0.0
2017-Oct-20 16:30N 37°49' W 122°18'0 0.0
2017-Oct-20 16:00N 37°49' W 122°18'0 0.0
2017-Oct-20 15:30N 37°49' W 122°18'0 0.0
2017-Oct-20 15:00N 37°49' W 122°18'0 0.0
2017-Oct-20 14:00N 37°49' W 122°18'0 0.0
2017-Oct-20 13:30N 37°49' W 122°18'0 0.0
2017-Oct-20 13:00N 37°49' W 122°18'0 0.0
2017-Oct-20 12:30N 37°49' W 122°18'0 0.0
2017-Oct-20 12:00N 37°49' W 122°18'0 0.0
2017-Oct-20 11:30N 37°49' W 122°18'0 0.0
2017-Oct-20 11:01N 37°49' W 122°18'0 0.0
2017-Oct-20 10:30N 37°49' W 122°18'0 0.0
2017-Oct-20 10:00N 37°49' W 122°18'0 0.0
2017-Oct-20 09:30N 37°49' W 122°18'0 0.3
2017-Oct-20 09:00N 37°49' W 122°19'1 2.1
2017-Oct-20 08:31N 37°49' W 122°20'1 2.3
2017-Oct-20 08:01N 37°49' W 122°19'0 0.0
2017-Oct-20 07:30N 37°49' W 122°19'0 0.5
2017-Oct-20 07:00N 37°49' W 122°19'1 2.9
2017-Oct-20 06:31N 37°48' W 122°20'2 3.0
2017-Oct-20 06:00N 37°48' W 122°22'510.7
2017-Oct-20 05:30N 37°49' W 122°28'612.1
2017-Oct-20 05:00N 37°46' W 122°35'610.3
2017-Oct-20 04:25N 37°44' W 122°42'4 9.8
2017-Oct-20 03:59N 37°43' W 122°47'14 2.3
2017-Oct-19 22:13N 37°38' W 123°03'4 9.0
2017-Oct-19 21:44N 37°38' W 122°58'15 8.9
2017-Oct-19 20:03N 37°45' W 122°40'0 8.6
2017-Oct-19 20:00N 37°45' W 122°40'4 8.4
2017-Oct-19 19:30N 37°46' W 122°35'4 7.9
2017-Oct-19 19:00N 37°48' W 122°30'3 6.0
2017-Oct-19 18:30N 37°50' W 122°27'3 6.4
2017-Oct-19 18:00N 37°49' W 122°23'3 5.5
2017-Oct-19 17:30N 37°49' W 122°20'1 1.5
2017-Oct-19 17:01N 37°48' W 122°21'1 1.5
2017-Oct-19 16:30N 37°48' W 122°20'2 3.2
2017-Oct-19 16:00N 37°49' W 122°19'0 0.0
2017-Oct-19 15:30N 37°49' W 122°19'0 0.0
2017-Oct-19 15:00N 37°49' W 122°19'0 0.0
2017-Oct-19 14:30N 37°49' W 122°19'0 0.0
2017-Oct-19 14:00N 37°49' W 122°19'0 0.0
2017-Oct-19 13:30N 37°49' W 122°19'0 0.0
2017-Oct-19 13:00N 37°49' W 122°19'0 0.0
2017-Oct-19 12:31N 37°49' W 122°19'0 0.0
2017-Oct-19 12:01N 37°49' W 122°19'0 0.0
2017-Oct-19 11:31N 37°49' W 122°19'0 0.0
2017-Oct-19 11:00N 37°49' W 122°19'0 0.0
2017-Oct-19 10:31N 37°49' W 122°19'0 0.5
2017-Oct-19 10:01N 37°49' W 122°19'1 2.8
2017-Oct-19 09:31N 37°48' W 122°21'1 2.2
2017-Oct-19 09:01N 37°48' W 122°21'3 6.5
2017-Oct-19 08:30N 37°49' W 122°25'5 9.3
2017-Oct-19 08:00N 37°48' W 122°31'510.4
2017-Oct-19 07:30N 37°46' W 122°37'5 9.0
2017-Oct-19 07:00N 37°44' W 122°42'5 9.5
2017-Oct-19 06:29N 37°43' W 122°48'5 9.9
2017-Oct-19 06:00N 37°41' W 122°53'510.0
2017-Oct-19 05:30N 37°39' W 122°59'5 9.8
2017-Oct-19 05:00N 37°39' W 123°05'710.0
2017-Oct-19 04:18N 37°39' W 123°14'3 9.9
2017-Oct-19 04:00N 37°39' W 123°18'610.0
2017-Oct-19 03:26N 37°39' W 123°25'3 6.3
2017-Oct-19 02:55N 37°39' W 123°29'4 8.7
2017-Oct-19 02:29N 37°39' W 123°24'4 8.7
2017-Oct-19 01:58N 37°39' W 123°19'4 8.9
2017-Oct-19 01:30N 37°39' W 123°13'4 8.8
2017-Oct-19 01:00N 37°39' W 123°08'4 8.8
2017-Oct-19 00:30N 37°38' W 123°02'4 8.8
2017-Oct-19 00:00N 37°39' W 122°57'4 9.0
2017-Oct-18 23:30N 37°41' W 122°52'5 9.1
2017-Oct-18 23:00N 37°43' W 122°47'4 8.8
2017-Oct-18 22:30N 37°45' W 122°42'4 8.8
2017-Oct-18 22:00N 37°46' W 122°37'611.2
2017-Oct-18 21:30N 37°49' W 122°30'5 9.6
2017-Oct-18 21:00N 37°49' W 122°24'3 6.8
2017-Oct-18 20:31N 37°49' W 122°20'0 0.1
2017-Oct-18 20:00N 37°49' W 122°20'1 1.8
2017-Oct-18 19:30N 37°48' W 122°21'1 2.6
2017-Oct-18 19:00N 37°48' W 122°23'5 9.0
2017-Oct-18 18:30N 37°49' W 122°28'510.1
2017-Oct-18 18:00N 37°47' W 122°34'5 9.6
2017-Oct-18 17:30N 37°45' W 122°39'4 8.4
2017-Oct-18 17:00N 37°43' W 122°44'5 9.6
2017-Oct-18 16:29N 37°42' W 122°51'5 9.7
2017-Oct-18 16:00N 37°40' W 122°56'5 9.3
2017-Oct-18 15:30N 37°39' W 123°01'5 9.3
2017-Oct-18 15:00N 37°39' W 123°07'9 9.4
2017-Oct-18 14:00N 37°39' W 123°19'5 9.2
2017-Oct-18 13:30N 37°39' W 123°25'3 6.3
2017-Oct-18 13:00N 37°39' W 123°29'4 7.7
2017-Oct-18 12:28N 37°39' W 123°24'4 7.8
2017-Oct-18 12:00N 37°39' W 123°19'4 8.0
2017-Oct-18 11:30N 37°39' W 123°14'4 8.1
2017-Oct-18 11:00N 37°38' W 123°09'4 8.3
2017-Oct-18 10:30N 37°38' W 123°04'4 8.2
2017-Oct-18 10:00N 37°38' W 122°58'4 7.9
2017-Oct-18 09:30N 37°40' W 122°54'4 8.4
2017-Oct-18 09:00N 37°42' W 122°50'4 8.2
2017-Oct-18 08:30N 37°44' W 122°45'4 8.4
2017-Oct-18 08:00N 37°45' W 122°40'4 7.9
2017-Oct-18 07:30N 37°47' W 122°35'4 7.9
2017-Oct-18 07:00N 37°49' W 122°31'3 6.7
2017-Oct-18 06:30N 37°50' W 122°27'3 6.4
2017-Oct-18 06:01N 37°49' W 122°23'2 3.5
2017-Oct-18 05:30N 37°48' W 122°21'1 1.8
2017-Oct-18 05:00N 37°49' W 122°20'1 2.5
2017-Oct-18 04:31N 37°49' W 122°19'0 0.1
2017-Oct-18 04:01N 37°49' W 122°18'0 0.0
2017-Oct-18 03:30N 37°49' W 122°18'0 0.1
2017-Oct-18 03:00N 37°49' W 122°19'0 0.0
2017-Oct-18 02:30N 37°49' W 122°19'0 0.0
2017-Oct-18 02:00N 37°49' W 122°19'0 0.0
2017-Oct-18 01:30N 37°49' W 122°19'0 0.0
2017-Oct-18 01:00N 37°49' W 122°19'0 0.0
2017-Oct-18 00:30N 37°49' W 122°19'0 0.1
2017-Oct-18 00:00N 37°49' W 122°18'0 0.5
2017-Oct-17 23:30N 37°49' W 122°19'2 4.1
2017-Oct-17 23:00N 37°48' W 122°21'0 0.8
2017-Oct-17 22:30N 37°48' W 122°21'3 7.0
2017-Oct-17 22:00N 37°49' W 122°25'3 6.6
2017-Oct-17 21:30N 37°49' W 122°29'3 6.0
2017-Oct-17 21:00N 37°47' W 122°33'3 7.0
2017-Oct-17 20:30N 37°46' W 122°37'4 7.8
2017-Oct-17 20:00N 37°44' W 122°41'5 9.2
2017-Oct-17 19:30N 37°43' W 122°47'5 9.4
2017-Oct-17 19:00N 37°41' W 122°52'5 9.4
2017-Oct-17 18:30N 37°39' W 122°57'5 9.0
2017-Oct-17 18:00N 37°38' W 123°03'5 9.1
2017-Oct-17 17:30N 37°39' W 123°09'4 8.7
2017-Oct-17 17:00N 37°39' W 123°14'4 8.7
2017-Oct-17 16:30N 37°39' W 123°20'4 8.8
2017-Oct-17 16:00N 37°39' W 123°25'3 5.4
2017-Oct-17 15:30N 37°39' W 123°28'4 8.3
2017-Oct-17 15:00N 37°39' W 123°23'4 8.6
2017-Oct-17 14:30N 37°39' W 123°18'4 8.6
2017-Oct-17 14:00N 37°39' W 123°12'4 8.4
2017-Oct-17 13:30N 37°39' W 123°07'4 8.4
2017-Oct-17 13:00N 37°39' W 123°02'4 8.2
2017-Oct-17 12:30N 37°39' W 122°57'4 8.3
2017-Oct-17 12:00N 37°41' W 122°52'4 8.3
2017-Oct-17 11:30N 37°43' W 122°48'4 8.4
2017-Oct-17 11:00N 37°44' W 122°43'4 8.1
2017-Oct-17 10:30N 37°46' W 122°38'5 9.7
2017-Oct-17 10:00N 37°47' W 122°32'5 9.1
2017-Oct-17 09:30N 37°50' W 122°27'5 9.2
2017-Oct-17 09:00N 37°48' W 122°22'2 3.6
2017-Oct-17 08:30N 37°49' W 122°20'1 1.8
2017-Oct-17 08:01N 37°49' W 122°19'0 0.2
2017-Oct-17 07:30N 37°49' W 122°18'0 0.0
2017-Oct-17 07:00N 37°49' W 122°18'0 0.5
2017-Oct-17 06:30N 37°49' W 122°19'2 3.0
2017-Oct-17 06:00N 37°48' W 122°20'1 1.7
2017-Oct-17 05:30N 37°48' W 122°21'5 9.3
2017-Oct-17 05:00N 37°49' W 122°27'510.2
2017-Oct-17 04:30N 37°47' W 122°33'510.7
2017-Oct-17 04:00N 37°45' W 122°39'4 7.6
2017-Oct-17 03:30N 37°44' W 122°43'5 9.9
2017-Oct-17 03:00N 37°43' W 122°50'5 9.9
2017-Oct-17 02:30N 37°40' W 122°55'510.0
2017-Oct-17 02:00N 37°38' W 123°01'510.1
2017-Oct-17 01:30N 37°39' W 123°07'510.2
2017-Oct-17 01:00N 37°39' W 123°13'5 9.8
2017-Oct-17 00:30N 37°39' W 123°20'510.0
2017-Oct-16 23:59N 37°39' W 123°26'0 0.5
2017-Oct-16 23:27N 37°39' W 123°26'4 9.0
2017-Oct-16 23:00N 37°39' W 123°21'5 9.2
2017-Oct-16 22:27N 37°39' W 123°15'4 8.9
2017-Oct-16 22:00N 37°39' W 123°10'5 9.0
2017-Oct-16 21:30N 37°38' W 123°04'5 9.1
2017-Oct-16 21:00N 37°38' W 122°58'5 9.1
2017-Oct-16 20:30N 37°40' W 122°53'5 9.2
2017-Oct-16 20:00N 37°43' W 122°48'5 9.3
2017-Oct-16 19:30N 37°44' W 122°43'4 8.9
2017-Oct-16 19:00N 37°46' W 122°38'5 9.2
2017-Oct-16 18:30N 37°48' W 122°32'4 8.1
2017-Oct-16 18:00N 37°50' W 122°28'3 6.9
2017-Oct-16 17:30N 37°49' W 122°23'3 5.6
2017-Oct-16 17:00N 37°49' W 122°20'0 0.8
2017-Oct-16 16:30N 37°49' W 122°19'1 1.7
2017-Oct-16 16:00N 37°49' W 122°18'0 0.0
2017-Oct-16 15:30N 37°49' W 122°18'0 0.0
2017-Oct-16 15:00N 37°49' W 122°18'0 0.0
2017-Oct-16 14:00N 37°49' W 122°18'0 0.0
2017-Oct-16 13:30N 37°49' W 122°18'0 0.0
2017-Oct-16 13:00N 37°49' W 122°18'0 0.1
2017-Oct-16 12:30N 37°49' W 122°19'0 0.1
2017-Oct-16 12:00N 37°49' W 122°18'0 0.0
2017-Oct-16 11:30N 37°49' W 122°18'0 0.0
2017-Oct-16 11:01N 37°49' W 122°18'0 0.0
2017-Oct-16 10:30N 37°49' W 122°18'0 0.1
2017-Oct-16 10:00N 37°49' W 122°19'0 0.0
2017-Oct-16 09:30N 37°49' W 122°19'0 0.1
2017-Oct-16 09:00N 37°49' W 122°18'0 0.0
2017-Oct-16 08:31N 37°49' W 122°18'0 0.0
2017-Oct-16 08:00N 37°49' W 122°18'0 0.0
2017-Oct-16 07:31N 37°49' W 122°18'0 0.0
2017-Oct-16 07:00N 37°49' W 122°18'0 0.0
2017-Oct-16 06:30N 37°49' W 122°18'0 0.0
2017-Oct-16 06:00N 37°49' W 122°18'0 0.0
2017-Oct-16 05:30N 37°49' W 122°18'1 2.1
2017-Oct-16 05:00N 37°49' W 122°20'2 3.4
2017-Oct-16 04:30N 37°47' W 122°21'3 5.4
2017-Oct-16 04:00N 37°49' W 122°24'5 9.2
2017-Oct-16 03:31N 37°48' W 122°30'5 9.8
2017-Oct-16 03:00N 37°46' W 122°35'5 9.0
2017-Oct-16 02:30N 37°44' W 122°40'4 8.0
2017-Oct-16 02:00N 37°43' W 122°45'5 9.9
2017-Oct-16 01:28N 37°42' W 122°52'510.3
2017-Oct-16 01:00N 37°39' W 122°57'510.1
2017-Oct-16 00:30N 37°39' W 123°03'510.2
2017-Oct-16 00:00N 37°39' W 123°10'7 9.7
2017-Oct-15 23:15N 37°39' W 123°19'3 9.7
2017-Oct-15 22:58N 37°39' W 123°23'5 9.8
2017-Oct-15 22:30N 37°39' W 123°28'2 4.6
2017-Oct-15 22:00N 37°39' W 123°25'5 9.0
2017-Oct-15 21:27N 37°39' W 123°19'4 8.8
2017-Oct-15 20:59N 37°39' W 123°14'4 8.6
2017-Oct-15 20:30N 37°39' W 123°09'4 8.6
2017-Oct-15 20:00N 37°39' W 123°03'4 8.8
2017-Oct-15 19:30N 37°38' W 122°58'4 8.9
2017-Oct-15 19:00N 37°41' W 122°53'4 8.9
2017-Oct-15 18:30N 37°43' W 122°48'5 8.7
2017-Oct-15 17:57N 37°44' W 122°42'4 7.7
2017-Oct-15 17:30N 37°45' W 122°38'4 7.9
2017-Oct-15 17:00N 37°47' W 122°34'4 7.8
2017-Oct-15 16:30N 37°49' W 122°29'3 6.4
2017-Oct-15 16:00N 37°50' W 122°25'3 7.0
2017-Oct-15 15:30N 37°48' W 122°22'1 3.0
2017-Oct-15 15:00N 37°48' W 122°20'2 1.7
2017-Oct-15 14:00N 37°49' W 122°18'0 0.0
2017-Oct-15 13:31N 37°49' W 122°18'0 0.0
2017-Oct-15 13:00N 37°49' W 122°18'0 0.0
2017-Oct-15 12:30N 37°49' W 122°18'0 0.0
2017-Oct-15 12:01N 37°49' W 122°18'0 0.0
2017-Oct-15 11:30N 37°49' W 122°18'0 0.0
2017-Oct-15 11:00N 37°49' W 122°18'0 0.1
2017-Oct-15 10:30N 37°49' W 122°19'0 0.0
2017-Oct-15 10:00N 37°49' W 122°19'0 0.0
2017-Oct-15 09:30N 37°49' W 122°19'0 0.1
2017-Oct-15 09:00N 37°49' W 122°18'0 0.1
2017-Oct-15 08:30N 37°49' W 122°19'0 0.0
2017-Oct-15 08:00N 37°49' W 122°19'0 0.0
2017-Oct-15 07:30N 37°49' W 122°19'0 0.0
2017-Oct-15 07:00N 37°49' W 122°19'0 0.1
2017-Oct-15 06:30N 37°49' W 122°18'0 0.0
2017-Oct-15 06:00N 37°49' W 122°18'0 0.0
2017-Oct-15 05:30N 37°49' W 122°18'0 0.0
2017-Oct-15 05:00N 37°49' W 122°18'0 0.0
2017-Oct-15 04:30N 37°49' W 122°18'2 3.9
2017-Oct-15 04:00N 37°48' W 122°21'0 0.9
2017-Oct-15 03:30N 37°48' W 122°21'0 0.7
2017-Oct-15 03:00N 37°48' W 122°21'2 3.5
2017-Oct-15 02:30N 37°50' W 122°21'1 2.5
2017-Oct-15 02:00N 37°49' W 122°21'2 4.1
2017-Oct-15 01:30N 37°49' W 122°19'0 0.0
2017-Oct-15 01:00N 37°49' W 122°19'0 0.0
2017-Oct-15 00:30N 37°49' W 122°19'0 0.1
2017-Oct-14 23:59N 37°49' W 122°18'0 0.0
2017-Oct-14 23:30N 37°49' W 122°18'0 0.1
2017-Oct-14 23:00N 37°49' W 122°19'0 0.0
2017-Oct-14 22:30N 37°49' W 122°19'2 4.7
2017-Oct-14 22:00N 37°50' W 122°21'2 3.2
2017-Oct-14 21:30N 37°50' W 122°23'3 5.8
2017-Oct-14 21:00N 37°49' W 122°27'4 7.9
2017-Oct-14 20:30N 37°48' W 122°31'4 7.8
2017-Oct-14 20:00N 37°46' W 122°36'4 8.8
2017-Oct-14 19:30N 37°44' W 122°41'5 9.5
2017-Oct-14 19:00N 37°43' W 122°47'510.4
2017-Oct-14 18:30N 37°41' W 122°53'510.2
2017-Oct-14 18:00N 37°39' W 122°59'510.0
2017-Oct-14 17:30N 37°38' W 123°05'510.2
2017-Oct-14 16:58N 37°39' W 123°12'510.0
2017-Oct-14 16:28N 37°39' W 123°18'510.2
2017-Oct-14 15:57N 37°39' W 123°25'4 7.9
2017-Oct-14 15:30N 37°39' W 123°29'4 7.6
2017-Oct-14 15:00N 37°39' W 123°24'4 7.5
2017-Oct-14 14:30N 37°38' W 123°20'4 7.7
2017-Oct-14 14:00N 37°38' W 123°15'4 7.8
2017-Oct-14 13:30N 37°38' W 123°10'4 8.0
2017-Oct-14 13:00N 37°37' W 123°05'4 8.0
2017-Oct-14 12:30N 37°37' W 122°60'4 8.4
2017-Oct-14 12:00N 37°39' W 122°55'4 8.5
2017-Oct-14 11:30N 37°42' W 122°51'4 8.1
2017-Oct-14 11:00N 37°43' W 122°46'4 8.3
2017-Oct-14 10:28N 37°45' W 122°41'4 8.6
2017-Oct-14 10:00N 37°47' W 122°36'5 9.2
2017-Oct-14 09:30N 37°48' W 122°31'510.1
2017-Oct-14 09:00N 37°50' W 122°25'4 7.1
2017-Oct-14 08:30N 37°48' W 122°21'1 2.5
2017-Oct-14 08:00N 37°49' W 122°20'1 2.6
2017-Oct-14 07:30N 37°49' W 122°18'0 0.0
2017-Oct-14 07:00N 37°49' W 122°18'0 0.0
2017-Oct-14 06:30N 37°49' W 122°18'0 0.0
2017-Oct-14 06:00N 37°49' W 122°18'0 0.0
2017-Oct-14 05:31N 37°49' W 122°18'0 0.0
2017-Oct-14 05:00N 37°49' W 122°18'0 0.0
2017-Oct-14 04:30N 37°49' W 122°18'0 0.0
2017-Oct-14 04:00N 37°49' W 122°18'0 0.0
2017-Oct-14 03:30N 37°49' W 122°18'0 0.0
2017-Oct-14 03:00N 37°49' W 122°18'0 0.0
2017-Oct-14 02:30N 37°49' W 122°18'0 0.1
2017-Oct-14 02:00N 37°49' W 122°19'1 2.8
2017-Oct-14 01:30N 37°49' W 122°20'1 2.8
2017-Oct-14 01:01N 37°50' W 122°21'0 0.0
2017-Oct-14 00:30N 37°50' W 122°21'0 0.0
2017-Oct-14 00:00N 37°50' W 122°21'0 0.2
2017-Oct-13 23:30N 37°50' W 122°21'2 3.3
2017-Oct-13 23:00N 37°50' W 122°24'510.4
2017-Oct-13 22:30N 37°48' W 122°30'5 9.5
2017-Oct-13 22:00N 37°46' W 122°35'5 9.6
2017-Oct-13 21:30N 37°44' W 122°40'4 7.6
2017-Oct-13 21:00N 37°44' W 122°45'5 9.8
2017-Oct-13 20:30N 37°42' W 122°51'5 9.8
2017-Oct-13 20:00N 37°40' W 122°57'5 9.3
2017-Oct-13 19:30N 37°38' W 123°02'5 9.7
2017-Oct-13 19:00N 37°39' W 123°08'5 9.8
2017-Oct-13 18:30N 37°39' W 123°15'510.0
2017-Oct-13 18:00N 37°39' W 123°21'5 9.5
2017-Oct-13 17:27N 37°39' W 123°28'1 2.1
2017-Oct-13 16:56N 37°39' W 123°29'3 6.6
2017-Oct-13 16:27N 37°39' W 123°25'3 6.6
2017-Oct-13 16:00N 37°39' W 123°21'4 6.5
2017-Oct-13 15:28N 37°39' W 123°17'3 6.7
2017-Oct-13 15:00N 37°39' W 123°13'4 7.1
2017-Oct-13 14:30N 37°39' W 123°08'3 6.9
2017-Oct-13 14:00N 37°38' W 123°04'3 6.9
2017-Oct-13 13:30N 37°38' W 122°60'4 7.4
2017-Oct-13 13:00N 37°40' W 122°55'4 7.6
2017-Oct-13 12:30N 37°42' W 122°51'3 6.9
2017-Oct-13 12:00N 37°43' W 122°47'4 6.0
2017-Oct-13 11:16N 37°44' W 122°42'2 8.0
2017-Oct-13 11:00N 37°45' W 122°39'4 8.0
2017-Oct-13 10:30N 37°46' W 122°35'4 8.1
2017-Oct-13 10:00N 37°48' W 122°30'4 8.0
2017-Oct-13 09:30N 37°50' W 122°25'4 7.6
2017-Oct-13 09:00N 37°48' W 122°21'1 2.6
2017-Oct-13 08:30N 37°49' W 122°20'1 1.9
2017-Oct-13 08:00N 37°49' W 122°19'0 0.3
2017-Oct-13 07:31N 37°49' W 122°19'0 0.0
2017-Oct-13 07:01N 37°49' W 122°19'0 0.0
2017-Oct-13 06:31N 37°49' W 122°19'0 0.0
2017-Oct-13 06:01N 37°49' W 122°19'0 0.0
2017-Oct-13 05:30N 37°49' W 122°19'0 0.0
2017-Oct-13 05:00N 37°49' W 122°19'0 0.0
2017-Oct-13 04:31N 37°49' W 122°19'0 0.0
2017-Oct-13 04:00N 37°49' W 122°19'0 0.0
2017-Oct-13 03:30N 37°49' W 122°19'0 0.0
2017-Oct-13 03:00N 37°49' W 122°19'1 1.3
2017-Oct-13 02:31N 37°49' W 122°19'0 0.9
2017-Oct-13 02:00N 37°49' W 122°20'2 3.2
2017-Oct-13 01:30N 37°50' W 122°21'0 0.0
2017-Oct-13 01:00N 37°50' W 122°21'0 0.0
2017-Oct-13 00:30N 37°50' W 122°21'0 0.0
2017-Oct-13 00:00N 37°50' W 122°21'0 0.0
2017-Oct-12 23:30N 37°50' W 122°21'0 0.0
2017-Oct-12 23:00N 37°50' W 122°21'0 0.2
2017-Oct-12 22:30N 37°50' W 122°21'2 3.4
2017-Oct-12 22:00N 37°50' W 122°24'510.5
2017-Oct-12 21:30N 37°48' W 122°30'5 9.9
2017-Oct-12 21:00N 37°46' W 122°36'5 9.5
2017-Oct-12 20:27N 37°44' W 122°42'4 8.8
2017-Oct-12 19:58N 37°43' W 122°47'5 9.9
2017-Oct-12 19:30N 37°41' W 122°52'5 9.7
2017-Oct-12 19:00N 37°39' W 122°58'5 9.3
2017-Oct-12 18:30N 37°39' W 123°03'510.0
2017-Oct-12 18:00N 37°39' W 123°10'5 9.9
2017-Oct-12 17:29N 37°39' W 123°16'8 9.3
2017-Oct-12 16:39N 37°39' W 123°26'2 8.0
2017-Oct-12 16:25N 37°39' W 123°28'3 4.2
2017-Oct-12 15:42N 37°39' W 123°25'1 6.5
2017-Oct-12 15:29N 37°39' W 123°23'3 6.5
2017-Oct-12 15:00N 37°39' W 123°19'3 6.3
2017-Oct-12 14:30N 37°39' W 123°15'3 6.6
2017-Oct-12 14:00N 37°39' W 123°11'3 5.8
2017-Oct-12 13:30N 37°38' W 123°07'3 5.3
2017-Oct-12 13:00N 37°38' W 123°04'3 5.0
2017-Oct-12 12:30N 37°38' W 123°01'2 4.8
2017-Oct-12 12:00N 37°38' W 122°58'3 5.3
2017-Oct-12 11:30N 37°40' W 122°55'3 5.7
2017-Oct-12 11:00N 37°41' W 122°52'3 5.5
2017-Oct-12 10:30N 37°43' W 122°49'3 5.1
2017-Oct-12 10:00N 37°44' W 122°46'3 5.2
2017-Oct-12 09:30N 37°45' W 122°43'3 5.0
2017-Oct-12 09:00N 37°46' W 122°40'2 3.9
2017-Oct-12 08:30N 37°46' W 122°38'2 4.0
2017-Oct-12 08:00N 37°47' W 122°35'2 4.8
2017-Oct-12 07:30N 37°48' W 122°32'3 5.9
2017-Oct-12 07:01N 37°49' W 122°29'3 6.2
2017-Oct-12 06:30N 37°50' W 122°25'3 6.6
2017-Oct-12 06:00N 37°48' W 122°22'1 2.3
2017-Oct-12 05:30N 37°48' W 122°20'2 3.4
2017-Oct-12 05:00N 37°49' W 122°19'0 0.1
2017-Oct-12 04:30N 37°49' W 122°18'0 0.1
2017-Oct-12 04:00N 37°49' W 122°19'0 0.1
2017-Oct-12 03:30N 37°49' W 122°18'0 0.1
2017-Oct-12 03:00N 37°49' W 122°19'0 0.0
2017-Oct-12 02:30N 37°49' W 122°19'0 0.0
2017-Oct-12 02:00N 37°49' W 122°19'0 0.0
2017-Oct-12 01:31N 37°49' W 122°19'0 0.1
2017-Oct-12 01:00N 37°49' W 122°18'0 0.0
2017-Oct-12 00:30N 37°49' W 122°18'0 0.0
2017-Oct-12 00:00N 37°49' W 122°18'0 0.0
2017-Oct-11 23:30N 37°49' W 122°18'0 0.0
2017-Oct-11 23:00N 37°49' W 122°18'0 0.7
2017-Oct-11 22:30N 37°49' W 122°19'1 2.8
2017-Oct-11 22:01N 37°48' W 122°20'2 3.1
2017-Oct-11 21:30N 37°49' W 122°19'0 0.1
2017-Oct-11 21:00N 37°49' W 122°19'0 0.1
2017-Oct-11 20:31N 37°49' W 122°19'0 0.0
2017-Oct-11 20:00N 37°49' W 122°19'0 0.0
2017-Oct-11 19:30N 37°49' W 122°19'0 0.0
2017-Oct-11 19:00N 37°49' W 122°19'0 0.0
2017-Oct-11 18:30N 37°49' W 122°19'0 0.0
2017-Oct-11 18:00N 37°49' W 122°19'2 3.3
2017-Oct-11 17:30N 37°48' W 122°20'1 2.4
2017-Oct-11 17:00N 37°48' W 122°22'3 0.2
2017-Oct-11 00:00N 37°49' W 122°19'0 0.0
2017-Oct-10 23:30N 37°49' W 122°19'0 0.0
2017-Oct-10 23:00N 37°49' W 122°19'0 0.0
2017-Oct-10 22:30N 37°49' W 122°19'0 0.0
2017-Oct-10 22:00N 37°49' W 122°19'0 0.0
2017-Oct-10 21:30N 37°49' W 122°19'0 0.0
2017-Oct-10 21:01N 37°49' W 122°19'  

Dump ship's entire track history